CheckWX is a tool to help pilots better visualize weather data.  It is not intended as a substitute for an official pre-flight weather briefing.

19:01:27 UTC

SARC METAR
Corrientes Airport
Corrientes, Argentina
Current

1 hour ago

SARC 201800Z 14017KT 6000 NSC 23/02 Q1016
Observed
Sep-20 @ 18:00 UTC
Wind
  • 140° at 17 KTS
Visibility
6,000 meters
Flight Rules
MVFR
Cloud Levels
  • Clear skies
Temperature
23°C / 73°F
Dewpoint
C / 36°F
Humidity
25%
Altimeter
30" Hg
Pressure
1015.92 hPa
Previous

2 hours ago

SARC 201700Z 14015KT 6000 NSC 22/05 Q1017
Observed
Sep-20 @ 17:00 UTC
Wind
  • 140° at 15 KTS
Visibility
6,000 meters
Flight Rules
MVFR
Cloud Levels
  • Clear skies
Temperature
22°C / 72°F
Dewpoint
C / 41°F
Humidity
33%
Altimeter
30.03" Hg
Pressure
1016.92 hPa
Previous

3 hours ago

SARC 201600Z 18017KT CAVOK 22/06 Q1018
Observed
Sep-20 @ 16:00 UTC
Wind
  • 180° at 17 KTS
Visibility
10,000+ meters
Flight Rules
VFR
Cloud Levels
  • Clear skies
Temperature
22°C / 72°F
Dewpoint
C / 43°F
Humidity
36%
Altimeter
30.06" Hg
Pressure
1017.92 hPa